Bookmark and Share
Track history (hours):
 

Malacca

Last reported at 2013-May-19 21:07 UTC. Time now 2014-Apr-23 09:48 UTC.
Position N 29°49' E 032°32'.
Warning: this ship's position is months out of date.

Length 294 m; draft 8.7 m.

Type: Cargo ship. MMSI: 538004358.

NotesDate/timePositionNaut miles runAvg speedWind from/ knotsBaromVisibWave heightAir tempDewpointWater temp
2013-May-19 21:07N 29°49' E 032°32'79 3.8
2013-May-19 00:20N 31°07' E 032°19'7 8.3
2013-May-18 23:33N 31°14' E 032°21'10 1.7
2013-May-18 17:29N 31°24' E 032°19'0 0.0
2013-May-18 16:34N 31°24' E 032°19'3 0.9
2013-May-18 13:34N 31°25' E 032°17'1110.5
2013-May-18 12:32N 31°34' E 032°10'2711.8
2013-May-18 10:16N 31°51' E 031°45'6811.4
2013-May-18 04:21N 32°26' E 030°37'4611.1
2013-May-18 00:09N 32°49' E 029°49'711.1
2013-May-17 23:31N 32°53' E 029°42'1111.0
2013-May-17 22:32N 32°58' E 029°31'1111.0
2013-May-17 21:33N 33°06' E 029°21'1311.7
2013-May-17 20:28N 33°14' E 029°10'1111.4
2013-May-17 19:30N 33°20' E 028°59'3 3.3
2013-May-17 18:33N 33°22' E 028°56'1 0.7
2013-May-17 17:32N 33°21' E 028°57'0 0.2
2013-May-17 16:32N 33°21' E 028°56'1 0.5
2013-May-17 15:27N 33°21' E 028°56'1 0.6
2013-May-17 14:26N 33°22' E 028°55'8 7.3
2013-May-17 13:16N 33°28' E 028°48'23 3.0
2013-May-17 05:33N 33°33' E 028°21'1211.4
2013-May-17 04:30N 33°39' E 028°09'5711.4
2013-May-16 23:32N 34°08' E 027°10'1111.0
2013-May-16 22:33N 34°14' E 026°59'  

Dump ship's entire track history

sailing weather and tide predictions

Malacca — V7WP2 — position and weather